Западная Россия

Регион "Западная Россия" VATRUS включает в себя территорию Республики Беларусь - Зональный центр Минск, а также территорию Региональных центров ЕС ОрВД Москва и Самара в Российской Федерации.

Примечателен регион тем, что в Беларуси полеты осуществляются в соответствии с международными документами ICAO, а в России - согласно Федеральным авиационным правилам. Это накладывает некоторые особенности работы, в том числе немного различаются минимальные интервалы.

Тем не менее, на всей территории региона радиосвязь может вестись как на русском, так и на английском языках.

Руководство осуществляют независимо руководители трех центров, их контакты вы можете найти на страницах РПИ ниже.

Лого Западная Россия
FSS региона
Обозначение
RU-WRC_FSS
Позывной
Запад-Контроль
Частота
135.320
Примечание
Top-down, исключая Московский УДР GND-FL285
Инструкторы региона
Alexander Mikhin (Instructor)
Alexander Petrenko (Instructor)
Alexey Dobronravov (Instructor)
Andrei Valasevich * (Controller)
Anton Myglan (Senior Instructor)
Artem Morozov * (Controller)
Artem Smorchkov (Instructor)
Denis Kashin (Instructor)
Dmitry Markus (Instructor)
Ilya Pyankov (Instructor)
Ivan Buev (Instructor)
Ivan Chokenyuk * (Controller)
Ivan Skatov (Instructor)
Matvey Safyannikov (Instructor)
Maxim Gerasimov (Instructor)
Maxim Tsygankov (Instructor)
Nick Smirnov (Instructor)
Roman Savel (Instructor)
Sergei Stetsko * (Controller)
Yulia Goryacheva (Instructor)
Включает в себя

РПИ Минск
РПИ Москва
РПИ Самара

Диспетчеры региона

Диспетчер Рейтинг Допуски *
Artem Mordvinov Controller UMMV_CTR
Alexander Mikhin Instructor UUWV_CTR , UWWW_CTR
Alexander Petrenko Instructor UMMV_CTR , UUWV_CTR , UWWW_CTR
Alexey Dobronravov Instructor UUWV_CTR , UWWW_CTR
Andrei Valasevich Controller UMMV_CTR
Anton Gluchenkov Senior Student UWWW_CTR  *, UWWW_APP
Artem Morozov Controller UUWV_CTR , UWWW_CTR
Artem Smorchkov Instructor UUWV_CTR , UWWW_CTR
Denis Kashin Instructor UMMV_CTR
Dmitriy Kuzmin Controller UMMV_CTR  *, UMMS_APP
Dmitry Bugaychuk Instructor UWWW_CTR
Dmitry Markus Instructor UUWV_CTR , UWWW_CTR
George Kalandadze Controller UUWV_CTR
Ivan Buev Instructor UUWV_CTR , UWWW_CTR
Ivan Skatov Instructor UUWV_CTR , UWWW_CTR
Masha Stanchenko Unknown UUWV_CTR
Maxim Finashko Controller UUWV_CTR
Maxim Gerasimov Instructor UMMV_CTR , UWLL_APP(UWLL+UWLW)
Maxim Grechishkin Senior Student UUWV_CTR  *, MSK_APP(UUDD+UUEE+UUWW)
Maxim Tsygankov Instructor UUWV_CTR , UWWW_CTR
Michael Loyuk Controller UUWV_CTR
Nick Smirnov Instructor UUWV_CTR , UWWW_CTR
Robert Farber Controller UUWV_CTR
Roman Savel Instructor UMMV_CTR
Sergei Stetsko Controller UWWW_CTR
Sergey Kovalenko Controller UUWV_CTR
Stanley Yorke Controller UWWW_CTR , UUBW_APP, UUWW_DEP, UUWW_F_APP, UUWW_APP
Vladimir Anisimov Senior Controller UUWV_CTR , UWWW_CTR
Vyacheslav Neklyudov Controller UUWV_CTR
Yulia Goryacheva Instructor UUWV_CTR , UWWW_CTR
Yury Koryagin Instructor UUWV_CTR , UWWW_CTR
Akmal Choriev Student UMMS_GND
Aleksey Podlesny Student UUEE_S_GND, UUEE_N_GND, UUEE_GND
Aleksey Zgoda Student UMMS_GND, UMMS_1_TWR*, UMMS_2_TWR*
alex kozyro Student 2 UMMS_1_TWR*, UMMS_2_TWR*
Alexander Akhundov Student 2 UWLL_TWR
Alexander Belyakov Unknown UMMS_APP
Alexander Nazarenko Student UMMS_GND
Alexander Ryabchuk Student UUEE_GND, UUEE_N_GND, UUEE_S_GND
Alexandr Sosnovsky Senior Student UWKB_R_TWR
Alexey Verbitsky Student UMMS_GND
Alexsey Gorbunov Unknown UUDD_GND
Andrey Makarov Student UUWW_GND
Andrey Timofeev Student UUDD_GND
Anna Piliushko Student 2 UMMS_APP*
Anna Pukhlyakova Student UUWW_GND
Anton Beshenov Student UUEE_S_GND, UUEE_N_GND, UUEE_GND
Arseniy Artyushin Student 2 UWWW_TWR!!!, UWWW_APP*
Arseny Krutikov Senior Student UMMS_APP*
Artem Badalov Senior Student UWKB_R_TWR
Artem Kalashnikov Student UUWW_GND
Artem Pustovoi Student 2 UUWW_TWR
Artem Alexeev Student UUEE_GND, UUEE_S_TWR*, UUEE_N_TWR*, UUEE_TWR*, UUEE_N_GND, UUEE_S_GND
Arthur Kurbangaleev Student UWWW_GND
Artyom Somok Student UMMS_GND
Danila Yarov Senior Student UMMS_APP
Dmitrii Terekhov Student UUWW_GND
Egor Chertukhin Student UWWW_GND
Egor Goriachev Student 2 UUWW_DEP*, UUWW_TWR, UUEE_TWR, UUWW_APP*, UUWW_F_APP*, UUDD_TWR, UUEE_S_TWR, UUEE_N_TWR
Egor Migalkin Student UUWW_GND
Egor Petrov Student UUDD_GND
Evgeniy Dedyaev Senior Student UWSG_APP, UWLL_APP(UWLL+UWLW) , UWUU_APP, UWWW_APP, UWKD_APP(UWKD+UWKB+UWKJ+UWKE+UWKS)
Evgeniy Emelynov Student UUEE_GND, UUEE_S_GND, UUEE_N_GND
Evgeny Dubovitsky Student 2 UWWW_TWR, UWLL_TWR
Evgeny Zuev Senior Student UWWW_APP
Gleb Ishmuratov Student UUDD_GND
Gleb Smolkov Student 2 UUEE_F_APP*, UUEE_DEP*, UUEE_N_TWR, UUEE_APP*, UUEE_S_TWR, UUEE_TWR
Ignat Morozov Student 2 UMMS_GND
Iosif Karpov Student 2 UMMS_R_APP*
Ivan Baranov Student UUEE_S_TWR*, UUEE_N_TWR*, UUEE_TWR*, UUEE_N_GND, UUEE_GND, UUEE_S_GND
Ivan Davidovich Student UMMS_GND
Ivan Piskovsky Unknown UUWW_GND
Ivan Zubov Student 2 UWLL_TWR
Kirill Belskiy Student 2 UUEE_APP*, UUEE_F_APP*, UUEE_DEP*
Kirill Korchagin Student UUWW_GND
Kirill Kudryavtsev Student 2 UUWW_TWR
Kseniia Dedukh Unknown UUWW_APP, UUWW_DEP, UUWW_F_APP
Maksim Otto Instructor UUEE_DEP, UUEE_F_APP, UUDD_F_APP, UUEE_APP, UUWW_APP, UUWW_F_APP, UUWW_DEP, UUDD_DEP, UUDD_APP
Maksim Tsyro Student UMMS_GND
mansur sibgatullin Student 2 UWKD_TWR, UWWW_TWR, UWKD_APP(UWKD+UWKB+UWKJ+UWKE+UWKS)
Matthew Palusaar Student UMMS_2_TWR*, UMMS_1_TWR*
Maxim Ivantsov Student 2 UMMS_R_APP*
Maxim Kalalenskiy Student 2 UUWW_TWR!!!, UWLL_TWR, UWKD_TWR, UWWW_TWR
Maxim Khromtsov Controller MSK_APP(UUEE+UUDD+UUWW)
Michael Kostelcev Student 2 UMMS_APP*
Mihail Mihailov Senior Student MSK_APP(UUEE+UUDD+UUWW)
Nikita Filatov Student UUWW_GND
Nikita Ioshkin Senior Student UWWW_APP
Nikita Ivlev Student 2 UUEE_DEP*, UUEE_F_APP*, UUEE_APP*, UUDD_TWR
Nikita Khomich Student UUEE_S_GND, UUEE_N_GND, UUEE_GND
Nikita Kuhtenkov Student UUEE_GND, UUEE_N_GND, UUEE_S_GND, UUEE_TWR*, UUEE_N_TWR*, UUEE_S_TWR*
Nikita Levin Senior Student MSK_APP(UUEE+UUDD+UUWW)
Nikita Mezenov Student UUWW_GND
Oleg Alov Controller UUDD_DEP, UUDD_APP, UUDD_F_APP, UUEE_APP, UUEE_F_APP, UUEE_DEP, UUWW_APP, UUWW_F_APP, UUWW_DEP
Pavel Kostuykov Student 2 UMMS_2_TWR, UMMS_1_TWR
Pavel Moskvin Student 2 UUEE_APP*, UUEE_F_APP*, UUEE_DEP*
Pavel Sergienko Senior Student UUML_TWR
Pavel Yashin Student 2 UMMS_APP*
Petr Efimov Student UUEE_GND, UUEE_N_GND, UUEE_S_GND
Petr Koreshkov Student UUEE_S_GND, UUEE_N_GND, UUEE_GND
Rustam Kilichev Student UUEE_S_GND, UUEE_GND, UUEE_N_GND
Sergey Isaev Student 2 MSK_APP(UUEE+UUDD+UUWW)
Sergey Milyaev Student UUDD_GND
tikhon pogrebnyak Student UMMS_GND
Ura Strelkov Student UMMS_GND
Vasya Voronin Student UWLL_GND
Vsevolod Shyshko Student UMMS_1_TWR*, UMMS_2_TWR*
Yury Kompaniychenko Student 2 UUML_TWR!!!
Zakhar Grinin Student UUDD_GND

Аэропорты региона

ICAO Город Название Погода
UMMS Минск Минск UMMS 250700Z 22005G08MPS 9999 BKN011 08/06 Q1003 NOSIG
UUWW Москва Внуково UUWW 250700Z 18007MPS CAVOK 15/07 Q1007 WS R24 R24/000070 NOSIG
UUDD Москва Домодедово UUDD 250700Z 18007MPS 9999 FEW031 16/08 Q1008 R14R/CLRD60 NOSIG
UUBW Москва Жуковский UUBW 250700Z 15006MPS 9999 SCT035 16/08 Q1008 R30/010060 NOSIG RMK QFE746
UUMU Москва Чкаловский
UUEE Москва Шереметьево UUEE 250700Z 15007MPS CAVOK 15/07 Q1007 R06R/CLRD62 R06C/CLRD62 NOSIG
UWWW Самара Курумоч UWWW 250700Z 14002MPS 9999 FEW033 17/03 Q1023 R15/CLRD63 NOSIG RMK QFE755/1007
UWUU Уфа Уфа UWUU 250700Z 34004MPS 310V040 9999 OVC012 10/07 Q1023 R32L/0///60 NOSIG
UUOB Белгород Белгород UUOB 250700Z 16002MPS 130V200 CAVOK 16/11 Q1009 R29/010070 NOSIG
UMBB Брест Брест UMBB 250700Z 24003MPS 6000 -SHRA OVC009CB 07/06 Q1005 NOSIG
UUBP Брянск Брянск
UWKB Бугульма Бугульма
UMII Витебск Восточный UMII 250700Z 20006G09MPS 9999 BKN007 OVC013 10/08 Q1002 TEMPO 2000 BR BKN005
UUOO Воронеж Воронеж UUOO 250700Z 16006MPS CAVOK 17/09 Q1011 R12/010070 NOSIG RMK QFE744
UMGG Гомель Гомель UMGG 250700Z 20006MPS 9000 BKN016 BKN100 12/09 Q1007 NOSIG
UMMG Гродно Гродно UMMG 250700Z 25004G07MPS 9000 BKN011 OVC031 07/05 Q1003 NOSIG
UUBI Иваново Иваново
UWKJ Йошкар-Ола Йошкар-Ола
UWKD Казань Казань UWKD 250700Z 17003MPS 140V200 CAVOK 16/02 Q1023 R11/CLRD70 NOSIG RMK QFE757/1009
UUBC Калуга Калуга UUBC 250700Z 18005MPS 9999 BKN040 14/09 Q1007 R13/CLRD60 NOSIG RMK QFE737/0983
UUOK Курск Курск UUOK 250700Z 21003MPS 150V250 9999 FEW020 16/11 Q1009 R12/090060 NOSIG RMK QFE739/0985
UMOO Могилёв Могилёв UMOO 250700Z 18004MPS 9000 BKN021 10/07 Q1005 NOSIG
UUMO Москва Остафьево UUMO 250700Z 18004MPS 130V260 CAVOK 15/07 Q1008 R07/CLRD60 NOSIG RMK QFE741/0988
UWKE Нижнекамск Бегишево UWKE 250700Z 08002MPS 010V160 9999 BKN010 10/09 Q1024 R21/090070 NOSIG RMK QFE751/1002
UWGG Нижний Новгород Стригино UWGG 250700Z 15004MPS CAVOK 14/M01 Q1017 R18L/090070 NOSIG
UWOO Оренбург Оренбург UWOO 250700Z 04005MPS CAVOK 17/10 Q1020 R08/CLRD60 NOSIG RMK QFE754/1006
UWOR Орск Орск UWOR 250700Z 05007MPS CAVOK 14/07 Q1019 R07/190058 NOSIG RMK QFE740/0986
UWPP Пенза Пенза
UWPS Саранск Саранск UWPS 250700Z 16007MPS CAVOK 18/04 Q1019 R20/CLRD60 NOSIG RMK QFE747
UWSG Саратов Гагарин UWSG 250700Z 07004MPS CAVOK 18/08 Q1021 R08/CLRD70 NOSIG RMK QFE763/1018
UWLL Ульяновск-УЛК Ульяновск UWLL 250700Z 13003MPS 080V190 CAVOK 16/03 Q1023 R02/090065 NOSIG RMK QFE755/1006
UWLW Ульяновск-УЛС Восточный UWLW 250700Z 21002MPS 150V250 CAVOK 17/03 Q1023 R20/CLRD60 NOSIG RMK QFE761/1015
UWKS Чебоксары Чебоксары UWKS 250700Z 15005MPS CAVOK 15/02 Q1022 R24/090060 NOSIG RMK QFE752
UUDL Ярославль Туношна UUDL 250700Z 11006MPS 9999 SCT032 10/03 Q1011 R23/190055 NOSIG RMK QFE750
UUMW Ватулино Ватулино
UUML Воскресенск Северка